Time;durP1;ratioP1;P1;durP2;ratioP2;P2;SDS_P1;SDS_P2;PMS_P1;PMS_P2;Temp;Humidity;BMP_temperature;BMP_pressure;BME280_temperature;BME280_humidity;BME280_pressure;Samples;Min_cycle;Max_cycle;Signal;HPM_P1;HPM_P2
2023/03/19 00:01:36;;;;;;;14.25;5.25;;;;;;;;;;4974102;28;20034;-71
2023/03/19 00:04:23;;;;;;;11.13;5.28;;;;;;;;;;4961813;28;20034;-69
2023/03/19 00:07:08;;;;;;;8.80;4.75;;;;;;;;;;4971235;28;20034;-70
2023/03/19 00:09:53;;;;;;;6.75;3.88;;;;;;;;;;4979141;28;20034;-71
2023/03/19 00:12:39;;;;;;;9.93;4.25;;;;;;;;;;4975479;28;20117;-70
2023/03/19 00:15:24;;;;;;;11.30;4.78;;;;;;;;;;4975894;28;20038;-72
2023/03/19 00:18:10;;;;;;;9.30;4.32;;;;;;;;;;4997890;28;20397;-71
2023/03/19 00:20:55;;;;;;;11.82;4.65;;;;;;;;;;4979283;28;20060;-72
2023/03/19 00:23:40;;;;;;;11.70;4.47;;;;;;;;;;4977849;28;20034;-70
2023/03/19 00:26:27;;;;;;;11.80;4.85;;;;;;;;;;4975579;28;20026;-73
2023/03/19 00:29:13;;;;;;;11.60;5.10;;;;;;;;;;4974255;28;20037;-73
2023/03/19 00:31:58;;;;;;;10.52;5.00;;;;;;;;;;4975380;28;20030;-75
2023/03/19 00:34:43;;;;;;;10.05;5.22;;;;;;;;;;4960925;28;20026;-74
2023/03/19 00:37:29;;;;;;;14.98;5.20;;;;;;;;;;4973342;28;20033;-73
2023/03/19 00:40:14;;;;;;;7.63;3.85;;;;;;;;;;4973652;28;20022;-75
2023/03/19 00:42:59;;;;;;;8.32;4.20;;;;;;;;;;4981732;28;20029;-71
2023/03/19 00:45:44;;;;;;;8.27;3.70;;;;;;;;;;4975080;28;20065;-69
2023/03/19 00:48:30;;;;;;;7.32;3.80;;;;;;;;;;4976672;28;20037;-69
2023/03/19 00:51:15;;;;;;;8.45;3.63;;;;;;;;;;4974492;28;20113;-69
2023/03/19 00:54:01;;;;;;;8.73;4.15;;;;;;;;;;4985539;28;20121;-70
2023/03/19 00:56:46;;;;;;;7.68;4.15;;;;;;;;;;4970574;28;20057;-72
2023/03/19 00:59:31;;;;;;;12.57;4.80;;;;;;;;;;4976295;28;20092;-78
2023/03/19 01:02:16;;;;;;;10.52;4.13;;;;;;;;;;4959369;28;20030;-73
2023/03/19 01:05:02;;;;;;;12.85;5.00;;;;;;;;;;4973744;28;20044;-74
2023/03/19 01:07:47;;;;;;;9.23;4.72;;;;;;;;;;4987814;28;20277;-73
2023/03/19 01:10:33;;;;;;;11.20;4.53;;;;;;;;;;4965226;28;20400;-72
2023/03/19 01:13:18;;;;;;;7.78;3.83;;;;;;;;;;4974252;28;20026;-72
2023/03/19 01:16:03;;;;;;;8.80;3.90;;;;;;;;;;4974433;28;20121;-77
2023/03/19 01:18:48;;;;;;;9.32;3.70;;;;;;;;;;4966435;28;20066;-73
2023/03/19 01:21:35;;;;;;;8.43;3.22;;;;;;;;;;4972552;28;20435;-68
2023/03/19 01:24:20;;;;;;;10.38;3.60;;;;;;;;;;4957122;28;20082;-68
2023/03/19 01:27:05;;;;;;;7.78;3.83;;;;;;;;;;4975629;28;20034;-69
2023/03/19 01:29:51;;;;;;;8.15;4.20;;;;;;;;;;4979974;28;20030;-69
2023/03/19 01:32:36;;;;;;;8.73;4.00;;;;;;;;;;4977145;28;20030;-69
2023/03/19 01:35:21;;;;;;;8.90;3.53;;;;;;;;;;4981770;28;20022;-67
2023/03/19 01:38:06;;;;;;;8.05;3.35;;;;;;;;;;4976091;28;20093;-74
2023/03/19 01:40:52;;;;;;;7.50;3.40;;;;;;;;;;4970351;28;20037;-74
2023/03/19 01:43:37;;;;;;;5.88;3.22;;;;;;;;;;4974571;28;20037;-74
2023/03/19 01:46:27;;;;;;;9.75;3.40;;;;;;;;;;4970890;28;20327;-75
2023/03/19 01:49:12;;;;;;;6.95;3.80;;;;;;;;;;4962301;28;20493;-74
2023/03/19 01:51:59;;;;;;;7.45;3.83;;;;;;;;;;4980447;28;20058;-74
2023/03/19 01:54:45;;;;;;;7.78;3.95;;;;;;;;;;4995265;28;20038;-78
2023/03/19 01:57:31;;;;;;;10.52;4.53;;;;;;;;;;4981882;28;20479;-68
2023/03/19 02:00:16;;;;;;;8.10;3.70;;;;;;;;;;4969574;28;20405;-70
2023/03/19 02:03:02;;;;;;;10.52;3.35;;;;;;;;;;4977592;28;20045;-69
2023/03/19 02:05:48;;;;;;;7.30;3.60;;;;;;;;;;4976898;28;20058;-69
2023/03/19 02:08:34;;;;;;;7.57;3.42;;;;;;;;;;4969297;28;20035;-72
2023/03/19 02:11:20;;;;;;;8.30;3.22;;;;;;;;;;4959753;28;20042;-74
2023/03/19 02:14:08;;;;;;;5.57;3.10;;;;;;;;;;4976122;28;20042;-76
2023/03/19 02:16:53;;;;;;;6.28;2.85;;;;;;;;;;4979363;28;20026;-68
2023/03/19 02:19:42;;;;;;;5.10;2.47;;;;;;;;;;4992311;28;20042;-68
2023/03/19 02:22:28;;;;;;;6.00;2.72;;;;;;;;;;4970996;28;20512;-68
2023/03/19 02:25:18;;;;;;;4.95;2.67;;;;;;;;;;4990027;28;20117;-69
2023/03/19 02:28:03;;;;;;;3.78;2.30;;;;;;;;;;4976544;28;20042;-69
2023/03/19 02:30:49;;;;;;;4.70;2.10;;;;;;;;;;4988801;28;20042;-72
2023/03/19 02:33:34;;;;;;;3.65;2.70;;;;;;;;;;4976771;28;20038;-78
2023/03/19 02:36:19;;;;;;;4.63;2.55;;;;;;;;;;4961250;28;20041;-77
2023/03/19 02:39:06;;;;;;;6.43;2.65;;;;;;;;;;4977380;28;20030;-77
2023/03/19 02:41:52;;;;;;;6.53;2.40;;;;;;;;;;4985879;28;20075;-75
2023/03/19 02:44:37;;;;;;;6.88;2.40;;;;;;;;;;4972757;28;20103;-78
2023/03/19 02:47:23;;;;;;;5.38;2.40;;;;;;;;;;4976155;28;20471;-78
2023/03/19 02:50:08;;;;;;;5.35;2.40;;;;;;;;;;4983975;28;20569;-72
2023/03/19 02:52:54;;;;;;;7.93;3.00;;;;;;;;;;4985216;28;20230;-73
2023/03/19 02:55:39;;;;;;;9.20;3.05;;;;;;;;;;4986790;28;20029;-71
2023/03/19 02:58:25;;;;;;;4.80;2.65;;;;;;;;;;4979149;28;20239;-71
2023/03/19 03:01:10;;;;;;;5.57;3.00;;;;;;;;;;4976250;28;20038;-73
2023/03/19 03:03:55;;;;;;;8.65;3.38;;;;;;;;;;4971994;28;20160;-73
2023/03/19 03:06:41;;;;;;;5.38;3.20;;;;;;;;;;4971511;28;20046;-74
2023/03/19 03:09:26;;;;;;;9.75;3.15;;;;;;;;;;4977270;28;20080;-75
2023/03/19 03:12:12;;;;;;;5.05;2.95;;;;;;;;;;4976249;28;20069;-75
2023/03/19 03:14:57;;;;;;;3.95;2.72;;;;;;;;;;4988900;28;20019;-74
2023/03/19 03:17:44;;;;;;;3.13;2.42;;;;;;;;;;4978721;28;20516;-75
2023/03/19 03:20:29;;;;;;;4.75;2.97;;;;;;;;;;4983959;28;20433;-74
2023/03/19 03:23:15;;;;;;;5.72;2.42;;;;;;;;;;4978192;28;20041;-75
2023/03/19 03:26:01;;;;;;;4.53;2.50;;;;;;;;;;4943581;28;20030;-73
2023/03/19 03:28:46;;;;;;;7.93;2.80;;;;;;;;;;4975755;28;20172;-75
2023/03/19 03:31:32;;;;;;;4.05;2.50;;;;;;;;;;4968289;28;20411;-76
2023/03/19 03:34:17;;;;;;;7.32;2.90;;;;;;;;;;4974085;28;20235;-75
2023/03/19 03:37:02;;;;;;;6.65;3.08;;;;;;;;;;4961834;28;20030;-75
2023/03/19 03:39:48;;;;;;;6.07;2.90;;;;;;;;;;4976563;28;20124;-74
2023/03/19 03:42:35;;;;;;;5.18;2.65;;;;;;;;;;4976538;28;20084;-74
2023/03/19 03:45:20;;;;;;;9.10;2.70;;;;;;;;;;4975996;28;20022;-73
2023/03/19 03:48:06;;;;;;;4.50;2.40;;;;;;;;;;4972082;28;20046;-79
2023/03/19 03:50:54;;;;;;;7.07;3.00;;;;;;;;;;4989606;28;20045;-76
2023/03/19 03:53:39;;;;;;;7.50;3.05;;;;;;;;;;4974991;28;20042;-77
2023/03/19 03:56:24;;;;;;;4.82;2.50;;;;;;;;;;4971210;28;20597;-77
2023/03/19 03:59:10;;;;;;;5.95;2.95;;;;;;;;;;4974171;28;20030;-78
2023/03/19 04:01:55;;;;;;;7.93;2.80;;;;;;;;;;4976429;28;20404;-74
2023/03/19 04:04:40;;;;;;;7.70;3.58;;;;;;;;;;4988923;28;20034;-70
2023/03/19 04:07:26;;;;;;;6.22;2.92;;;;;;;;;;4975060;28;20042;-74
2023/03/19 04:10:11;;;;;;;4.70;2.67;;;;;;;;;;4983045;28;20030;-75
2023/03/19 04:12:56;;;;;;;4.78;2.63;;;;;;;;;;4977457;28;20068;-76
2023/03/19 04:15:42;;;;;;;6.30;2.63;;;;;;;;;;4977130;28;20543;-75
2023/03/19 04:18:28;;;;;;;5.72;3.17;;;;;;;;;;4974525;28;20045;-75
2023/03/19 04:21:13;;;;;;;5.60;2.75;;;;;;;;;;4974671;28;20032;-73
2023/03/19 04:23:58;;;;;;;6.82;3.67;;;;;;;;;;4961970;28;20048;-74
2023/03/19 04:26:47;;;;;;;4.60;2.60;;;;;;;;;;4967851;28;20093;-75
2023/03/19 04:29:32;;;;;;;6.22;3.13;;;;;;;;;;4974064;28;20038;-73
2023/03/19 04:32:18;;;;;;;6.60;3.25;;;;;;;;;;4977819;28;20113;-74
2023/03/19 04:35:03;;;;;;;5.10;3.30;;;;;;;;;;4977666;28;20034;-74
2023/03/19 04:37:48;;;;;;;8.82;2.97;;;;;;;;;;4987260;28;20035;-76
2023/03/19 04:40:34;;;;;;;5.90;2.60;;;;;;;;;;4975265;28;20031;-73
2023/03/19 04:43:19;;;;;;;11.00;3.58;;;;;;;;;;4980000;28;20068;-76
2023/03/19 04:46:13;;;;;;;4.88;3.25;;;;;;;;;;5065402;28;20517;-73
2023/03/19 04:48:58;;;;;;;8.45;2.80;;;;;;;;;;5059872;28;20478;-73
2023/03/19 04:51:43;;;;;;;4.32;2.60;;;;;;;;;;5064441;28;20060;-73
2023/03/19 04:54:29;;;;;;;4.63;3.03;;;;;;;;;;5063501;28;20037;-73
2023/03/19 04:57:14;;;;;;;7.25;3.50;;;;;;;;;;5064669;28;20060;-70
2023/03/19 05:00:00;;;;;;;6.78;4.00;;;;;;;;;;5061852;28;20016;-73
2023/03/19 05:02:45;;;;;;;7.03;3.45;;;;;;;;;;5062703;28;20034;-73
2023/03/19 05:05:31;;;;;;;4.85;2.50;;;;;;;;;;5064293;28;20518;-73
2023/03/19 05:08:16;;;;;;;8.30;4.85;;;;;;;;;;5058284;28;20039;-74
2023/03/19 05:11:01;;;;;;;5.13;3.00;;;;;;;;;;5051339;28;20029;-77
2023/03/19 05:13:46;;;;;;;6.65;3.55;;;;;;;;;;5063832;28;20419;-74
2023/03/19 05:16:33;;;;;;;5.78;3.50;;;;;;;;;;5063206;28;20020;-71
2023/03/19 05:19:18;;;;;;;4.85;3.13;;;;;;;;;;5049170;28;20033;-69
2023/03/19 05:22:03;;;;;;;3.75;2.70;;;;;;;;;;5055306;28;20036;-69
2023/03/19 05:24:49;;;;;;;6.35;2.95;;;;;;;;;;5057691;28;20142;-69
2023/03/19 05:27:34;;;;;;;5.53;3.17;;;;;;;;;;5058866;28;20025;-71
2023/03/19 05:30:20;;;;;;;7.13;3.10;;;;;;;;;;5056099;28;20033;-70
2023/03/19 05:33:05;;;;;;;5.40;2.85;;;;;;;;;;5070643;28;20157;-70
2023/03/19 05:35:50;;;;;;;5.40;2.80;;;;;;;;;;5063669;28;20036;-71
2023/03/19 05:38:36;;;;;;;5.47;2.67;;;;;;;;;;5062184;28;20029;-71
2023/03/19 05:41:21;;;;;;;7.22;3.30;;;;;;;;;;5040243;28;20033;-71
2023/03/19 05:44:06;;;;;;;8.68;2.92;;;;;;;;;;5049428;28;20396;-72
2023/03/19 05:46:52;;;;;;;4.55;2.85;;;;;;;;;;5056130;28;20286;-71
2023/03/19 05:49:37;;;;;;;5.82;2.60;;;;;;;;;;5044592;28;20037;-71
2023/03/19 05:52:22;;;;;;;4.43;2.88;;;;;;;;;;5056700;28;20033;-74
2023/03/19 05:55:08;;;;;;;7.22;2.70;;;;;;;;;;5047895;28;20373;-70
2023/03/19 05:57:54;;;;;;;6.13;2.55;;;;;;;;;;5047787;28;20029;-75
2023/03/19 06:00:40;;;;;;;3.90;2.40;;;;;;;;;;5050628;28;20080;-73
2023/03/19 06:03:25;;;;;;;4.65;2.60;;;;;;;;;;5046778;28;20086;-73
2023/03/19 06:06:11;;;;;;;5.80;2.95;;;;;;;;;;5037261;28;20041;-73
2023/03/19 06:08:56;;;;;;;8.63;3.63;;;;;;;;;;5035959;28;20025;-72
2023/03/19 06:11:41;;;;;;;7.47;2.78;;;;;;;;;;5049675;28;20381;-66
2023/03/19 06:14:27;;;;;;;6.18;2.63;;;;;;;;;;5049054;28;20414;-72
2023/03/19 06:17:12;;;;;;;5.20;2.95;;;;;;;;;;5045890;28;20476;-70
2023/03/19 06:19:57;;;;;;;6.57;2.83;;;;;;;;;;5044271;28;20530;-69
2023/03/19 06:22:43;;;;;;;5.68;2.80;;;;;;;;;;5039357;28;20036;-70
2023/03/19 06:25:28;;;;;;;5.85;2.85;;;;;;;;;;5035600;28;20502;-68
2023/03/19 06:28:14;;;;;;;4.60;2.65;;;;;;;;;;5043522;28;20395;-69
2023/03/19 06:30:59;;;;;;;7.43;3.05;;;;;;;;;;5044225;28;20025;-66
2023/03/19 06:33:44;;;;;;;6.05;2.90;;;;;;;;;;5051264;28;20495;-73
2023/03/19 06:36:30;;;;;;;5.47;3.08;;;;;;;;;;5026834;28;20021;-72
2023/03/19 06:39:15;;;;;;;5.97;2.78;;;;;;;;;;5036362;28;20067;-72
2023/03/19 06:42:00;;;;;;;6.03;2.70;;;;;;;;;;5048992;28;20037;-74
2023/03/19 06:44:46;;;;;;;5.55;2.92;;;;;;;;;;5028586;28;20045;-74
2023/03/19 06:47:31;;;;;;;4.72;2.65;;;;;;;;;;5036293;28;20162;-72
2023/03/19 06:50:16;;;;;;;5.70;2.90;;;;;;;;;;5039491;28;20120;-77
2023/03/19 06:53:02;;;;;;;7.70;3.28;;;;;;;;;;5038702;28;20075;-71
2023/03/19 06:55:47;;;;;;;6.55;2.45;;;;;;;;;;5045681;28;20056;-72
2023/03/19 06:58:34;;;;;;;6.25;2.80;;;;;;;;;;5047731;28;20071;-70
2023/03/19 07:01:20;;;;;;;7.38;3.10;;;;;;;;;;5055157;28;20037;-72
2023/03/19 07:04:05;;;;;;;6.10;2.53;;;;;;;;;;5036238;28;20112;-71
2023/03/19 07:06:51;;;;;;;5.18;2.65;;;;;;;;;;5042095;28;20060;-71
2023/03/19 07:09:36;;;;;;;7.43;2.95;;;;;;;;;;5046455;28;20074;-73
2023/03/19 07:12:21;;;;;;;5.13;2.75;;;;;;;;;;5048564;28;20036;-73
2023/03/19 07:15:06;;;;;;;6.03;3.38;;;;;;;;;;5038399;28;20529;-73
2023/03/19 07:17:52;;;;;;;4.75;2.20;;;;;;;;;;5038266;28;20472;-73
2023/03/19 07:20:37;;;;;;;4.93;2.45;;;;;;;;;;5037819;28;20021;-73
2023/03/19 07:23:22;;;;;;;6.57;3.40;;;;;;;;;;5048835;28;20439;-75
2023/03/19 07:26:07;;;;;;;6.93;2.83;;;;;;;;;;5032282;28;20037;-72
2023/03/19 07:28:52;;;;;;;6.10;3.50;;;;;;;;;;5033615;28;20675;-77
2023/03/19 07:31:38;;;;;;;4.07;2.50;;;;;;;;;;5039769;28;20329;-77
2023/03/19 07:34:23;;;;;;;5.72;3.22;;;;;;;;;;5057158;28;20107;-77
2023/03/19 07:37:09;;;;;;;6.88;2.90;;;;;;;;;;5021628;28;20091;-75
2023/03/19 07:39:55;;;;;;;5.78;3.05;;;;;;;;;;5044090;28;20017;-76
2023/03/19 07:42:40;;;;;;;3.63;2.33;;;;;;;;;;5039906;28;20033;-76
2023/03/19 07:45:25;;;;;;;6.57;2.72;;;;;;;;;;5032122;28;20073;-70
2023/03/19 07:48:11;;;;;;;4.47;2.58;;;;;;;;;;5036068;28;20029;-73
2023/03/19 07:50:57;;;;;;;6.97;3.00;;;;;;;;;;5044031;28;20037;-73
2023/03/19 07:53:42;;;;;;;5.90;2.42;;;;;;;;;;5036616;28;20051;-74
2023/03/19 07:56:28;;;;;;;3.95;2.75;;;;;;;;;;5042320;28;20467;-73
2023/03/19 07:59:13;;;;;;;5.32;2.85;;;;;;;;;;5028254;28;20435;-73
2023/03/19 08:01:58;;;;;;;7.10;2.97;;;;;;;;;;5049926;28;20027;-70
2023/03/19 08:04:44;;;;;;;6.30;3.30;;;;;;;;;;5046743;28;20135;-71
2023/03/19 08:07:32;;;;;;;3.30;2.25;;;;;;;;;;5016146;28;20127;-71
2023/03/19 08:10:17;;;;;;;6.68;2.92;;;;;;;;;;5033367;28;20171;-72
2023/03/19 08:13:03;;;;;;;7.03;3.05;;;;;;;;;;5032539;28;20115;-75
2023/03/19 08:15:50;;;;;;;5.30;2.40;;;;;;;;;;5045829;28;20021;-72
2023/03/19 08:18:35;;;;;;;6.35;2.67;;;;;;;;;;5037123;28;20033;-75
2023/03/19 08:21:21;;;;;;;6.55;2.85;;;;;;;;;;5039058;28;20349;-70
2023/03/19 08:24:06;;;;;;;5.68;2.70;;;;;;;;;;5031150;28;20033;-77
2023/03/19 08:26:52;;;;;;;4.25;2.42;;;;;;;;;;5031659;28;20115;-75
2023/03/19 08:29:37;;;;;;;8.18;2.63;;;;;;;;;;5044845;28;20040;-78
2023/03/19 08:32:23;;;;;;;3.85;2.17;;;;;;;;;;5045136;28;20510;-77
2023/03/19 08:35:09;;;;;;;8.30;2.70;;;;;;;;;;5035312;28;20116;-74
2023/03/19 08:37:54;;;;;;;5.45;2.38;;;;;;;;;;5036051;28;20024;-73
2023/03/19 08:40:40;;;;;;;4.60;1.92;;;;;;;;;;5042642;28;20191;-75
2023/03/19 08:43:25;;;;;;;4.55;2.30;;;;;;;;;;5045751;28;20083;-72
2023/03/19 08:46:10;;;;;;;5.82;2.92;;;;;;;;;;5025790;28;20419;-69
2023/03/19 08:48:55;;;;;;;3.30;1.90;;;;;;;;;;5043891;28;20027;-70
2023/03/19 08:51:41;;;;;;;2.97;2.00;;;;;;;;;;5029085;28;20067;-71
2023/03/19 08:54:26;;;;;;;8.05;2.20;;;;;;;;;;5027643;28;20036;-70
2023/03/19 08:57:11;;;;;;;3.45;2.50;;;;;;;;;;5030141;28;20459;-76
2023/03/19 08:59:56;;;;;;;8.98;3.13;;;;;;;;;;5028687;28;20091;-72
2023/03/19 09:02:42;;;;;;;9.13;3.08;;;;;;;;;;5033064;28;20579;-73
2023/03/19 09:05:27;;;;;;;4.57;2.60;;;;;;;;;;5028275;28;20132;-76
2023/03/19 09:08:12;;;;;;;5.80;2.60;;;;;;;;;;5028136;28;20484;-73
2023/03/19 09:10:57;;;;;;;3.03;2.33;;;;;;;;;;5030433;28;20487;-73
2023/03/19 09:13:43;;;;;;;6.60;2.63;;;;;;;;;;5028489;28;20021;-74
2023/03/19 09:16:28;;;;;;;4.45;2.30;;;;;;;;;;5030611;28;20021;-70
2023/03/19 09:19:14;;;;;;;4.35;2.03;;;;;;;;;;5046443;28;20028;-73
2023/03/19 09:21:59;;;;;;;4.45;2.67;;;;;;;;;;5026752;28;20019;-72
2023/03/19 09:24:45;;;;;;;3.80;2.28;;;;;;;;;;5041381;28;20060;-73
2023/03/19 09:27:30;;;;;;;3.25;2.15;;;;;;;;;;5044519;28;20065;-72
2023/03/19 09:30:15;;;;;;;4.00;2.42;;;;;;;;;;5042293;28;20083;-74
2023/03/19 09:33:01;;;;;;;3.78;1.95;;;;;;;;;;5051044;28;20043;-71
2023/03/19 09:35:51;;;;;;;3.22;1.85;;;;;;;;;;5039054;28;20017;-74
2023/03/19 09:38:36;;;;;;;5.05;1.95;;;;;;;;;;5047684;28;20272;-73
2023/03/19 09:41:30;;;;;;;4.32;2.30;;;;;;;;;;5036332;28;20033;-74
2023/03/19 09:44:20;;;;;;;3.58;2.08;;;;;;;;;;5061982;28;20053;-73
2023/03/19 09:47:22;;;;;;;11.82;3.33;;;;;;;;;;5047231;28;20033;-78
2023/03/19 09:50:18;;;;;;;7.65;2.97;;;;;;;;;;5042772;28;20025;-78
2023/03/19 09:53:15;;;;;;;12.07;3.92;;;;;;;;;;5023709;28;20545;-78
2023/03/19 09:56:01;;;;;;;8.98;3.50;;;;;;;;;;5024959;28;20037;-70
2023/03/19 09:58:46;;;;;;;6.50;2.45;;;;;;;;;;5045324;28;20084;-70
2023/03/19 10:01:34;;;;;;;9.90;2.72;;;;;;;;;;5036804;28;20156;-70
2023/03/19 10:04:31;;;;;;;5.25;2.50;;;;;;;;;;5060884;28;20040;-71
2023/03/19 10:07:16;;;;;;;8.73;2.40;;;;;;;;;;5040807;28;20483;-67
2023/03/19 10:10:05;;;;;;;6.50;2.50;;;;;;;;;;5036564;28;20060;-85
2023/03/19 10:12:51;;;;;;;7.25;2.30;;;;;;;;;;5050440;28;20159;-69
2023/03/19 10:15:37;;;;;;;8.30;2.33;;;;;;;;;;5044385;28;20049;-67
2023/03/19 10:18:25;;;;;;;4.90;2.17;;;;;;;;;;5048266;28;20032;-68
2023/03/19 10:21:12;;;;;;;3.65;1.98;;;;;;;;;;5038733;28;20113;-68
2023/03/19 10:24:12;;;;;;;8.20;2.53;;;;;;;;;;5036086;28;20024;-69
2023/03/19 10:27:00;;;;;;;3.38;1.95;;;;;;;;;;5041458;28;20720;-63
2023/03/19 10:29:45;;;;;;;4.90;2.15;;;;;;;;;;5049412;28;20029;-71
2023/03/19 10:32:33;;;;;;;4.68;2.60;;;;;;;;;;5041054;28;20036;-66
2023/03/19 10:35:21;;;;;;;4.25;2.50;;;;;;;;;;5042660;28;20029;-65
2023/03/19 10:38:15;;;;;;;6.38;2.65;;;;;;;;;;5039141;28;20415;-64
2023/03/19 10:41:19;;;;;;;8.63;2.58;;;;;;;;;;5047941;28;20118;-65
2023/03/19 10:44:09;;;;;;;6.00;2.03;;;;;;;;;;5035339;28;20241;-65
2023/03/19 10:46:58;;;;;;;4.07;2.05;;;;;;;;;;5025809;28;20033;-77
2023/03/19 10:49:44;;;;;;;4.45;1.90;;;;;;;;;;5038158;28;20064;-65
2023/03/19 10:52:30;;;;;;;6.25;2.33;;;;;;;;;;5043924;28;20370;-64
2023/03/19 10:55:17;;;;;;;5.13;1.63;;;;;;;;;;5038928;28;20494;-66
2023/03/19 10:58:04;;;;;;;4.70;2.05;;;;;;;;;;5043877;28;20039;-66
2023/03/19 11:00:55;;;;;;;4.53;1.70;;;;;;;;;;5041693;28;20021;-65
2023/03/19 11:03:47;;;;;;;5.10;1.67;;;;;;;;;;5046697;28;20602;-64
2023/03/19 11:06:36;;;;;;;5.70;2.38;;;;;;;;;;5035456;28;20093;-75
2023/03/19 11:09:30;;;;;;;3.20;1.80;;;;;;;;;;5030189;28;20118;-66
2023/03/19 11:12:25;;;;;;;5.95;2.20;;;;;;;;;;5046976;28;20063;-67
2023/03/19 11:15:20;;;;;;;3.80;2.55;;;;;;;;;;5034136;28;20033;-64
2023/03/19 11:18:18;;;;;;;3.83;1.88;;;;;;;;;;5044446;28;20422;-66
2023/03/19 11:21:20;;;;;;;4.70;1.98;;;;;;;;;;5037417;28;20387;-65
2023/03/19 11:24:10;;;;;;;4.07;2.25;;;;;;;;;;5034502;28;20080;-72
2023/03/19 11:26:56;;;;;;;5.95;2.30;;;;;;;;;;5039903;28;20025;-61
2023/03/19 11:29:43;;;;;;;4.78;1.90;;;;;;;;;;5030287;28;20117;-61
2023/03/19 11:32:37;;;;;;;4.38;2.33;;;;;;;;;;5034056;28;20071;-60
2023/03/19 11:35:27;;;;;;;5.03;1.98;;;;;;;;;;5038950;28;20032;-61
2023/03/19 11:38:23;;;;;;;4.10;1.60;;;;;;;;;;5050114;28;20415;-62
2023/03/19 11:41:16;;;;;;;2.47;1.80;;;;;;;;;;5038026;28;20055;-60
2023/03/19 11:44:05;;;;;;;3.17;1.83;;;;;;;;;;5046118;28;20033;-76
2023/03/19 11:47:00;;;;;;;3.50;2.30;;;;;;;;;;5056833;28;20071;-73
2023/03/19 11:49:49;;;;;;;4.18;2.20;;;;;;;;;;5046730;28;20056;-71
2023/03/19 11:52:50;;;;;;;7.10;1.80;;;;;;;;;;5034692;28;20032;-72
2023/03/19 11:55:38;;;;;;;4.35;1.90;;;;;;;;;;5037133;28;20029;-72
2023/03/19 11:58:42;;;;;;;4.93;2.13;;;;;;;;;;5034136;28;20059;-73
2023/03/19 12:01:36;;;;;;;4.80;1.85;;;;;;;;;;5044539;28;20021;-69
2023/03/19 12:04:34;;;;;;;4.72;1.80;;;;;;;;;;5045951;28;20028;-65
2023/03/19 12:07:24;;;;;;;3.53;1.65;;;;;;;;;;5046847;28;20025;-63
2023/03/19 12:10:22;;;;;;;3.30;1.85;;;;;;;;;;5039819;28;20483;-64
2023/03/19 12:13:10;;;;;;;6.15;2.03;;;;;;;;;;5042777;28;20037;-67
2023/03/19 12:16:01;;;;;;;5.90;2.22;;;;;;;;;;5041652;28;20028;-64
2023/03/19 12:18:58;;;;;;;4.85;1.95;;;;;;;;;;5044173;28;20027;-74
2023/03/19 12:21:58;;;;;;;2.25;1.45;;;;;;;;;;5046383;28;20474;-74
2023/03/19 12:24:52;;;;;;;3.22;1.60;;;;;;;;;;5040350;28;20049;-75
2023/03/19 12:27:46;;;;;;;3.28;1.80;;;;;;;;;;5045074;28;20484;-76
2023/03/19 12:30:40;;;;;;;4.13;2.20;;;;;;;;;;5045956;28;20028;-74
2023/03/19 12:33:44;;;;;;;5.75;1.98;;;;;;;;;;5042008;28;20090;-73
2023/03/19 12:36:32;;;;;;;5.30;2.95;;;;;;;;;;5035446;28;20501;-73
2023/03/19 12:39:21;;;;;;;3.15;2.00;;;;;;;;;;5025514;28;20029;-66
2023/03/19 12:42:08;;;;;;;5.10;1.95;;;;;;;;;;5039061;28;20479;-70
2023/03/19 12:44:56;;;;;;;2.78;1.48;;;;;;;;;;5031487;28;20400;-67
2023/03/19 12:47:43;;;;;;;4.68;2.53;;;;;;;;;;5041677;28;20036;-67
2023/03/19 12:50:30;;;;;;;3.83;1.90;;;;;;;;;;5032314;28;20068;-65
2023/03/19 12:53:25;;;;;;;5.32;2.33;;;;;;;;;;5040450;28;20112;-69
2023/03/19 12:56:20;;;;;;;4.57;2.15;;;;;;;;;;5033339;28;20066;-67
2023/03/19 12:59:25;;;;;;;6.13;2.10;;;;;;;;;;5019114;28;20036;-73
2023/03/19 13:02:31;;;;;;;4.88;2.63;;;;;;;;;;5034082;28;20033;-72
2023/03/19 13:05:24;;;;;;;6.63;2.58;;;;;;;;;;5026987;28;20064;-73
2023/03/19 13:08:43;;;;;;;3.80;2.00;;;;;;;;;;5030844;28;20029;-73
2023/03/19 13:11:34;;;;;;;3.92;1.85;;;;;;;;;;5031882;28;20101;-73
2023/03/19 13:14:23;;;;;;;5.18;2.25;;;;;;;;;;5026131;28;20099;-71
2023/03/19 13:17:21;;;;;;;4.63;1.92;;;;;;;;;;5039188;28;20033;-78
2023/03/19 13:20:18;;;;;;;5.97;2.47;;;;;;;;;;5036632;28;20064;-78
2023/03/19 13:23:04;;;;;;;3.58;2.05;;;;;;;;;;5048000;28;20060;-77
2023/03/19 13:25:51;;;;;;;4.70;1.77;;;;;;;;;;5054539;28;20326;-78
2023/03/19 13:28:37;;;;;;;3.72;1.77;;;;;;;;;;5030324;28;20648;-77
2023/03/19 13:31:24;;;;;;;3.90;1.70;;;;;;;;;;5036883;28;20064;-75
2023/03/19 13:34:16;;;;;;;2.67;1.67;;;;;;;;;;5036459;28;20021;-74
2023/03/19 13:37:27;;;;;;;4.28;1.63;;;;;;;;;;5024337;28;20029;-73
2023/03/19 13:40:31;;;;;;;2.58;1.60;;;;;;;;;;5047948;28;20029;-72
2023/03/19 13:43:23;;;;;;;3.90;1.83;;;;;;;;;;5035674;28;20033;-75
2023/03/19 13:46:11;;;;;;;3.65;2.10;;;;;;;;;;5043132;28;20053;-79
2023/03/19 13:49:24;;;;;;;3.50;1.33;;;;;;;;;;5041859;28;20013;-75
2023/03/19 13:52:09;;;;;;;3.38;1.60;;;;;;;;;;5045285;28;20043;-70
2023/03/19 13:54:56;;;;;;;5.07;1.60;;;;;;;;;;5040443;28;20036;-64
2023/03/19 13:58:00;;;;;;;4.18;1.23;;;;;;;;;;5037211;28;20043;-66
2023/03/19 14:00:45;;;;;;;2.97;1.90;;;;;;;;;;5047351;28;20441;-63
2023/03/19 14:03:32;;;;;;;3.33;1.45;;;;;;;;;;5024316;28;20033;-63
2023/03/19 14:06:32;;;;;;;2.90;1.70;;;;;;;;;;5031957;28;20610;-65
2023/03/19 14:09:49;;;;;;;5.65;1.95;;;;;;;;;;5034736;28;20033;-69
2023/03/19 14:12:36;;;;;;;3.70;1.95;;;;;;;;;;5028208;28;20497;-79
2023/03/19 14:15:22;;;;;;;2.92;1.58;;;;;;;;;;5039520;28;20025;-78
2023/03/19 14:18:12;;;;;;;3.95;2.00;;;;;;;;;;5036240;28;20021;-78
2023/03/19 14:21:00;;;;;;;3.05;1.50;;;;;;;;;;5033399;28;20544;-78
2023/03/19 14:23:53;;;;;;;4.75;1.67;;;;;;;;;;5044845;28;20409;-79
2023/03/19 14:26:41;;;;;;;3.63;1.73;;;;;;;;;;5040196;28;20055;-80
2023/03/19 14:29:27;;;;;;;5.03;1.80;;;;;;;;;;5034991;28;20080;-74
2023/03/19 14:32:17;;;;;;;4.65;1.83;;;;;;;;;;5043670;28;20017;-66
2023/03/19 14:35:05;;;;;;;4.07;2.00;;;;;;;;;;5029546;28;20529;-66
2023/03/19 14:37:52;;;;;;;3.30;1.77;;;;;;;;;;5035953;28;20064;-67
2023/03/19 14:40:41;;;;;;;3.40;1.70;;;;;;;;;;5039149;28;20100;-66
2023/03/19 14:43:45;;;;;;;3.17;1.30;;;;;;;;;;5044866;28;20028;-66
2023/03/19 14:46:34;;;;;;;2.83;1.83;;;;;;;;;;5042773;28;20053;-68
2023/03/19 14:49:28;;;;;;;4.72;2.15;;;;;;;;;;5041865;28;20039;-71
2023/03/19 14:52:25;;;;;;;4.28;2.40;;;;;;;;;;5029893;28;20029;-73
2023/03/19 14:55:16;;;;;;;4.30;1.60;;;;;;;;;;5032867;28;20431;-71
2023/03/19 14:58:01;;;;;;;4.50;1.77;;;;;;;;;;5038945;28;20055;-73
2023/03/19 15:00:52;;;;;;;3.15;1.90;;;;;;;;;;5039621;28;20019;-75
2023/03/19 15:03:37;;;;;;;3.85;1.80;;;;;;;;;;5041172;28;20029;-72
2023/03/19 15:06:23;;;;;;;2.63;1.73;;;;;;;;;;5041070;28;20041;-72
2023/03/19 15:09:30;;;;;;;4.43;2.28;;;;;;;;;;5039311;28;20026;-71
2023/03/19 15:12:18;;;;;;;2.67;1.60;;;;;;;;;;5043374;28;20032;-74
2023/03/19 15:15:23;;;;;;;6.82;1.92;;;;;;;;;;5041165;28;20043;-71
2023/03/19 15:18:09;;;;;;;5.93;2.03;;;;;;;;;;5038870;28;20025;-73
2023/03/19 15:20:55;;;;;;;3.03;1.95;;;;;;;;;;5043419;28;20025;-71
2023/03/19 15:23:40;;;;;;;3.20;1.60;;;;;;;;;;5043680;28;20550;-69
2023/03/19 15:26:44;;;;;;;9.38;2.10;;;;;;;;;;5030728;28;20048;-69
2023/03/19 15:29:31;;;;;;;4.60;2.33;;;;;;;;;;5042426;28;20055;-69
2023/03/19 15:32:37;;;;;;;4.47;2.17;;;;;;;;;;5039476;28;20033;-70
2023/03/19 15:35:25;;;;;;;4.20;2.35;;;;;;;;;;5044009;28;20025;-72
2023/03/19 15:38:12;;;;;;;4.95;2.05;;;;;;;;;;5034043;28;20059;-71
2023/03/19 15:40:59;;;;;;;4.32;2.55;;;;;;;;;;5037280;28;20114;-75
2023/03/19 15:43:45;;;;;;;2.28;1.77;;;;;;;;;;5039057;28;20036;-75
2023/03/19 15:46:33;;;;;;;4.38;1.85;;;;;;;;;;5024020;28;20060;-74
2023/03/19 15:49:24;;;;;;;4.20;1.90;;;;;;;;;;5024391;28;20024;-73
2023/03/19 15:52:11;;;;;;;2.08;1.40;;;;;;;;;;5055318;28;20387;-70
2023/03/19 15:54:59;;;;;;;6.95;3.85;;;;;;;;;;5039796;28;20061;-73
2023/03/19 15:57:45;;;;;;;4.80;2.83;;;;;;;;;;5041727;28;20029;-73
2023/03/19 16:00:30;;;;;;;5.80;2.80;;;;;;;;;;5038793;28;20045;-73
2023/03/19 16:03:25;;;;;;;3.95;2.45;;;;;;;;;;5037492;28;20025;-73
2023/03/19 16:06:18;;;;;;;9.27;3.30;;;;;;;;;;5021009;28;20036;-73
2023/03/19 16:09:13;;;;;;;4.68;2.30;;;;;;;;;;5040001;28;20032;-73
2023/03/19 16:11:59;;;;;;;4.47;1.80;;;;;;;;;;5031326;28;20116;-74
2023/03/19 16:14:44;;;;;;;4.15;1.90;;;;;;;;;;5044342;28;20030;-76
2023/03/19 16:17:33;;;;;;;5.00;1.98;;;;;;;;;;5037117;28;20407;-71
2023/03/19 16:20:19;;;;;;;6.55;2.67;;;;;;;;;;5032265;28;20069;-73
2023/03/19 16:23:04;;;;;;;5.05;1.92;;;;;;;;;;5047871;28;20064;-68
2023/03/19 16:25:49;;;;;;;7.22;2.35;;;;;;;;;;5020302;28;20463;-66
2023/03/19 16:28:39;;;;;;;6.25;2.17;;;;;;;;;;5045807;28;20087;-66
2023/03/19 16:31:28;;;;;;;6.10;2.55;;;;;;;;;;5034554;28;20036;-68
2023/03/19 16:34:37;;;;;;;7.63;2.63;;;;;;;;;;5041477;28;20036;-66
2023/03/19 16:37:25;;;;;;;5.10;2.00;;;;;;;;;;5035202;28;20021;-72
2023/03/19 16:40:10;;;;;;;3.92;2.42;;;;;;;;;;5030441;28;20490;-77
2023/03/19 16:43:04;;;;;;;6.50;2.40;;;;;;;;;;5038285;28;20017;-75
2023/03/19 16:45:50;;;;;;;5.97;2.10;;;;;;;;;;5041027;28;20535;-75
2023/03/19 16:48:36;;;;;;;6.53;2.08;;;;;;;;;;5035970;28;20472;-76